Time;durP1;ratioP1;P1;durP2;ratioP2;P2;SDS_P1;SDS_P2;PMS_P1;PMS_P2;Temp;Humidity;BMP_temperature;BMP_pressure;BME280_temperature;BME280_humidity;BME280_pressure;Samples;Min_cycle;Max_cycle;Signal;HPM_P1;HPM_P2
2022/04/27 00:01:32;;;;;;;10.95;4.97;;;6.60;92.70;;;;;;5013177;28;20056;-39
2022/04/27 00:03:59;;;;;;;9.98;5.57;;;6.60;92.90;;;;;;5006977;28;20063;-36
2022/04/27 00:06:25;;;;;;;7.55;5.20;;;6.50;93.00;;;;;;5015065;28;20053;-38
2022/04/27 00:08:52;;;;;;;6.63;4.63;;;6.40;93.10;;;;;;5024271;28;20041;-39
2022/04/27 00:11:19;;;;;;;16.40;4.80;;;6.50;93.10;;;;;;5025829;28;20512;-40
2022/04/27 00:13:46;;;;;;;10.68;5.15;;;6.40;93.10;;;;;;5029411;28;20160;-37
2022/04/27 00:16:12;;;;;;;13.88;6.53;;;6.40;93.00;;;;;;5007815;28;20061;-38
2022/04/27 00:18:41;;;;;;;9.05;4.97;;;6.40;93.30;;;;;;5011563;28;20056;-37
2022/04/27 00:21:07;;;;;;;14.60;6.78;;;6.40;93.60;;;;;;5014332;28;20267;-39
2022/04/27 00:23:34;;;;;;;11.65;5.53;;;6.30;94.00;;;;;;5031751;28;20120;-37
2022/04/27 00:26:01;;;;;;;7.80;5.00;;;6.20;94.00;;;;;;5014619;28;20056;-35
2022/04/27 00:28:28;;;;;;;8.57;5.60;;;6.20;94.00;;;;;;5030588;28;20320;-39
2022/04/27 00:30:55;;;;;;;8.73;5.30;;;6.20;93.90;;;;;;5007013;28;20061;-38
2022/04/27 00:33:22;;;;;;;9.23;6.15;;;6.20;93.80;;;;;;5038306;28;20060;-38
2022/04/27 00:35:50;;;;;;;12.90;5.97;;;6.10;93.90;;;;;;5032030;28;20049;-40
2022/04/27 00:38:16;;;;;;;11.10;5.82;;;6.10;93.90;;;;;;5018501;28;20136;-38
2022/04/27 00:40:44;;;;;;;14.23;6.32;;;6.10;94.30;;;;;;5013594;28;20050;-39
2022/04/27 00:43:10;;;;;;;9.10;5.07;;;6.10;94.40;;;;;;5014214;28;20053;-39
2022/04/27 00:45:37;;;;;;;10.73;5.75;;;6.10;94.30;;;;;;5005795;28;20058;-38
2022/04/27 00:48:04;;;;;;;8.38;5.45;;;6.10;94.10;;;;;;5001544;28;20056;-34
2022/04/27 00:50:31;;;;;;;9.88;7.03;;;6.00;94.20;;;;;;5031407;28;20057;-37
2022/04/27 00:52:59;;;;;;;12.20;7.47;;;6.00;94.80;;;;;;5029538;28;20402;-35
2022/04/27 00:55:26;;;;;;;12.13;6.57;;;5.90;95.60;;;;;;5001526;28;20054;-36
2022/04/27 00:57:52;;;;;;;13.15;7.63;;;5.80;95.90;;;;;;5028608;28;20504;-37
2022/04/27 01:00:19;;;;;;;9.50;6.95;;;5.60;96.20;;;;;;5027164;28;20055;-37
2022/04/27 01:02:46;;;;;;;12.00;7.38;;;5.60;96.40;;;;;;5016624;28;20056;-37
2022/04/27 01:05:13;;;;;;;10.93;6.65;;;5.50;96.60;;;;;;5029543;28;20056;-39
2022/04/27 01:07:40;;;;;;;12.25;6.95;;;5.50;96.40;;;;;;5004263;28;20505;-40
2022/04/27 01:10:09;;;;;;;9.25;5.97;;;5.50;96.50;;;;;;5008961;28;20053;-35
2022/04/27 01:12:36;;;;;;;12.60;7.30;;;5.50;96.30;;;;;;5008791;28;20046;-38
2022/04/27 01:15:03;;;;;;;10.25;6.53;;;5.50;96.00;;;;;;5030510;28;20060;-37
2022/04/27 01:17:30;;;;;;;8.95;6.05;;;5.60;95.90;;;;;;5016218;28;20132;-36
2022/04/27 01:19:57;;;;;;;15.52;7.13;;;5.60;95.90;;;;;;5030430;28;20041;-40
2022/04/27 01:22:25;;;;;;;9.68;6.00;;;5.60;95.70;;;;;;5005802;28;20085;-39
2022/04/27 01:24:51;;;;;;;11.52;6.85;;;5.60;95.70;;;;;;5016628;28;20056;-40
2022/04/27 01:27:18;;;;;;;9.38;6.63;;;5.60;95.60;;;;;;5030825;28;20419;-38
2022/04/27 01:29:45;;;;;;;12.20;7.85;;;5.60;95.60;;;;;;5028553;28;20135;-40
2022/04/27 01:32:12;;;;;;;8.57;6.50;;;5.60;95.70;;;;;;5019714;28;20041;-37
2022/04/27 01:34:38;;;;;;;11.10;5.72;;;5.70;95.80;;;;;;5030762;28;20051;-38
2022/04/27 01:39:52;;;;;;;9.93;6.32;;;5.70;96.00;;;;;;5033442;28;20053;-40
2022/04/27 01:42:19;;;;;;;9.85;7.03;;;5.70;96.00;;;;;;5017483;28;20064;-39
2022/04/27 01:44:46;;;;;;;11.73;6.85;;;5.80;96.10;;;;;;5010776;28;20056;-39
2022/04/27 01:47:12;;;;;;;14.60;7.47;;;5.80;96.20;;;;;;5015118;28;20397;-39
2022/04/27 01:49:39;;;;;;;11.90;6.85;;;5.80;96.10;;;;;;5032511;28;20057;-38
2022/04/27 01:54:52;;;;;;;9.80;7.25;;;5.90;96.70;;;;;;5033875;28;20045;-37
2022/04/27 01:57:19;;;;;;;12.07;8.15;;;5.90;97.00;;;;;;5031227;28;20049;-40
2022/04/27 01:59:45;;;;;;;12.27;6.32;;;5.90;97.30;;;;;;5024064;28;20042;-37
2022/04/27 02:02:12;;;;;;;13.80;7.72;;;5.90;97.40;;;;;;5032627;28;20478;-40
2022/04/27 02:04:39;;;;;;;11.85;6.65;;;5.90;97.40;;;;;;5034034;28;20061;-41
2022/04/27 02:07:06;;;;;;;10.82;6.00;;;6.00;97.40;;;;;;5029501;28;20452;-42
2022/04/27 02:09:32;;;;;;;13.98;5.78;;;5.90;97.20;;;;;;5029295;28;20242;-37
2022/04/27 02:12:00;;;;;;;10.02;6.93;;;6.00;97.10;;;;;;5001785;28;20060;-39
2022/04/27 02:14:27;;;;;;;12.35;7.30;;;6.00;97.20;;;;;;5033294;28;20041;-40
2022/04/27 02:16:54;;;;;;;11.95;7.07;;;6.10;97.30;;;;;;5007714;28;20049;-41
2022/04/27 02:19:21;;;;;;;7.60;5.97;;;6.10;97.30;;;;;;5024788;28;20042;-40
2022/04/27 02:21:47;;;;;;;10.60;6.95;;;6.10;97.30;;;;;;5032529;28;20049;-37
2022/04/27 02:24:14;;;;;;;13.70;6.47;;;6.10;97.30;;;;;;5033126;28;20391;-38
2022/04/27 02:26:42;;;;;;;8.80;6.60;;;6.10;97.30;;;;;;5032309;28;20042;-38
2022/04/27 02:29:10;;;;;;;12.10;7.47;;;6.20;97.20;;;;;;5031711;28;20050;-40
2022/04/27 02:31:37;;;;;;;11.57;6.60;;;6.20;97.20;;;;;;5021722;28;20049;-39
2022/04/27 02:34:04;;;;;;;12.20;6.85;;;6.30;97.10;;;;;;5017153;28;20401;-41
2022/04/27 02:36:32;;;;;;;10.52;6.35;;;6.30;97.00;;;;;;5024023;28;20041;-38
2022/04/27 02:38:59;;;;;;;12.57;6.78;;;6.30;97.00;;;;;;5003465;28;20050;-39
2022/04/27 02:41:26;;;;;;;11.68;6.72;;;6.40;97.20;;;;;;5024197;28;20069;-40
2022/04/27 02:43:53;;;;;;;12.88;6.72;;;6.40;97.30;;;;;;5022538;28;20076;-37
2022/04/27 02:46:21;;;;;;;13.80;6.60;;;6.40;97.30;;;;;;5033830;28;20147;-40
2022/04/27 02:54:12;;;;;;;17.70;7.53;;;6.50;97.20;;;;;;5022225;28;20045;-40
2022/04/27 02:56:39;;;;;;;10.10;6.53;;;6.50;97.30;;;;;;5029337;28;20053;-38
2022/04/27 02:59:06;;;;;;;15.18;7.32;;;6.50;97.30;;;;;;5032679;28;20385;-40
2022/04/27 03:01:34;;;;;;;12.40;7.10;;;6.50;97.40;;;;;;5012486;28;20049;-40
2022/04/27 03:04:00;;;;;;;11.20;6.30;;;6.60;97.50;;;;;;5019664;28;20045;-40
2022/04/27 03:06:27;;;;;;;19.00;7.65;;;6.60;97.30;;;;;;5032243;28;20501;-40
2022/04/27 03:08:54;;;;;;;11.25;6.85;;;6.60;97.30;;;;;;5028322;28;20056;-37
2022/04/27 03:11:20;;;;;;;9.95;6.78;;;6.60;97.40;;;;;;5024496;28;20489;-36
2022/04/27 03:13:47;;;;;;;15.00;6.80;;;6.70;97.60;;;;;;5025039;28;20045;-40
2022/04/27 03:16:14;;;;;;;14.63;6.97;;;6.70;97.50;;;;;;5021027;28;20052;-38
2022/04/27 03:18:42;;;;;;;13.88;6.55;;;6.70;97.30;;;;;;4998845;28;20049;-38
2022/04/27 03:21:08;;;;;;;10.65;6.35;;;6.70;97.20;;;;;;5016477;28;20045;-37
2022/04/27 03:23:35;;;;;;;11.35;6.55;;;6.70;97.30;;;;;;5013453;28;20060;-42
2022/04/27 03:26:02;;;;;;;12.40;6.63;;;6.70;97.30;;;;;;5014396;28;20398;-42
2022/04/27 03:28:28;;;;;;;13.15;7.68;;;6.70;97.30;;;;;;5015646;28;20055;-37
2022/04/27 03:30:55;;;;;;;10.98;6.60;;;6.70;97.60;;;;;;5009156;28;20053;-39
2022/04/27 03:33:22;;;;;;;12.70;6.93;;;6.80;97.80;;;;;;5027388;28;20144;-37
2022/04/27 03:35:50;;;;;;;11.70;6.55;;;6.80;97.90;;;;;;5031012;28;20248;-42
2022/04/27 03:38:18;;;;;;;12.55;7.10;;;6.80;97.60;;;;;;5020710;28;20052;-38
2022/04/27 03:40:46;;;;;;;12.98;7.35;;;6.80;97.90;;;;;;5023322;28;20091;-37
2022/04/27 03:43:13;;;;;;;13.27;7.07;;;6.80;97.90;;;;;;5025051;28;20510;-39
2022/04/27 03:45:40;;;;;;;11.52;6.60;;;6.80;98.00;;;;;;5028965;28;20053;-39
2022/04/27 03:48:06;;;;;;;9.15;6.43;;;6.80;97.80;;;;;;5031420;28;20080;-39
2022/04/27 03:50:33;;;;;;;9.90;6.93;;;6.90;97.70;;;;;;5024613;28;20053;-41
2022/04/27 03:53:01;;;;;;;9.55;6.95;;;6.90;97.70;;;;;;5008254;28;20053;-40
2022/04/27 03:55:33;;;;;;;12.77;7.90;;;6.90;97.80;;;;;;5024273;28;20058;-37
2022/04/27 03:58:00;;;;;;;12.30;6.85;;;6.90;98.00;;;;;;5026979;28;20073;-40
2022/04/27 04:00:27;;;;;;;10.15;6.55;;;6.90;98.20;;;;;;5028856;28;20057;-42
2022/04/27 04:02:54;;;;;;;13.20;6.60;;;6.90;98.20;;;;;;5030972;28;20173;-41
2022/04/27 04:05:21;;;;;;;9.85;6.60;;;6.90;98.10;;;;;;5032016;28;20045;-37
2022/04/27 04:07:47;;;;;;;13.75;6.88;;;6.90;98.10;;;;;;5013180;28;20137;-39
2022/04/27 04:10:15;;;;;;;13.23;6.82;;;7.00;98.00;;;;;;5017836;28;20050;-37
2022/04/27 04:12:42;;;;;;;12.45;7.05;;;7.00;98.10;;;;;;5021027;28;20414;-38
2022/04/27 04:15:10;;;;;;;10.35;7.35;;;7.00;98.30;;;;;;5031425;28;20064;-42
2022/04/27 04:17:36;;;;;;;16.23;7.90;;;7.00;98.40;;;;;;5030087;28;20053;-39
2022/04/27 04:20:03;;;;;;;11.05;6.53;;;7.00;98.50;;;;;;5031172;28;20053;-39
2022/04/27 04:22:30;;;;;;;11.45;7.07;;;7.00;98.40;;;;;;5027574;28;20045;-42
2022/04/27 04:30:26;;;;;;;12.18;6.57;;;7.10;98.30;;;;;;5023593;28;20490;-40
2022/04/27 04:32:53;;;;;;;15.45;7.38;;;7.10;98.40;;;;;;5027902;28;20053;-38
2022/04/27 04:35:20;;;;;;;13.38;7.72;;;7.10;98.90;;;;;;5021571;28;20050;-38
2022/04/27 04:37:46;;;;;;;13.57;8.05;;;7.10;99.50;;;;;;5032088;28;20512;-39
2022/04/27 04:40:13;;;;;;;11.77;7.35;;;7.10;99.90;;;;;;5014973;28;20051;-42
2022/04/27 04:42:40;;;;;;;16.95;7.90;;;7.10;99.90;;;;;;5030114;28;20764;-40
2022/04/27 04:45:09;;;;;;;15.48;7.95;;;7.10;99.90;;;;;;5011650;28;20059;-41
2022/04/27 04:47:36;;;;;;;10.82;6.93;;;7.10;99.90;;;;;;5011404;28;20057;-41
2022/04/27 04:50:02;;;;;;;11.95;7.70;;;7.10;99.90;;;;;;5018630;28;20477;-40
2022/04/27 04:52:29;;;;;;;16.80;7.82;;;7.10;99.90;;;;;;5026907;28;20049;-39
2022/04/27 04:54:56;;;;;;;10.77;6.95;;;7.20;99.90;;;;;;5010616;28;20055;-40
2022/04/27 04:57:22;;;;;;;11.68;7.07;;;7.20;99.90;;;;;;5023714;28;20501;-41
2022/04/27 04:59:49;;;;;;;13.48;6.88;;;7.20;99.90;;;;;;5026520;28;20049;-39
2022/04/27 05:02:17;;;;;;;11.18;6.45;;;7.20;99.90;;;;;;5029135;28;20052;-40
2022/04/27 05:04:44;;;;;;;12.18;7.03;;;7.30;99.90;;;;;;5024062;28;20050;-40
2022/04/27 05:07:10;;;;;;;9.30;6.03;;;7.30;99.80;;;;;;5025198;28;20092;-37
2022/04/27 05:09:37;;;;;;;13.38;7.30;;;7.30;99.70;;;;;;5031278;28;20046;-41
2022/04/27 05:12:05;;;;;;;9.40;6.40;;;7.40;99.90;;;;;;5024393;28;20049;-39
2022/04/27 05:14:32;;;;;;;10.48;6.50;;;7.40;99.90;;;;;;5021729;28;20645;-41
2022/04/27 05:16:58;;;;;;;9.98;6.05;;;7.40;99.90;;;;;;5010370;28;20056;-41
2022/04/27 05:19:26;;;;;;;12.27;6.00;;;7.40;99.90;;;;;;5021693;28;20042;-40
2022/04/27 05:21:53;;;;;;;12.18;6.20;;;7.40;99.90;;;;;;5027052;28;20405;-41
2022/04/27 05:24:20;;;;;;;9.77;6.00;;;7.40;99.80;;;;;;5023020;28;20050;-40
2022/04/27 05:26:46;;;;;;;11.40;6.53;;;7.50;99.80;;;;;;5026923;28;20045;-41
2022/04/27 05:31:58;;;;;;;11.70;5.15;;;7.60;99.70;;;;;;5026122;28;20053;-39
2022/04/27 05:34:26;;;;;;;16.63;7.30;;;7.60;99.50;;;;;;5012673;28;20041;-41
2022/04/27 05:36:53;;;;;;;12.65;7.53;;;7.60;99.90;;;;;;5023083;28;20046;-41
2022/04/27 05:39:21;;;;;;;10.85;7.13;;;7.60;99.90;;;;;;5008660;28;20057;-39
2022/04/27 05:41:48;;;;;;;17.92;7.43;;;7.60;99.90;;;;;;5028926;28;20056;-41
2022/04/27 05:44:15;;;;;;;10.00;5.65;;;7.60;99.90;;;;;;5028497;28;20052;-39
2022/04/27 05:46:42;;;;;;;14.18;7.00;;;7.70;99.90;;;;;;5025922;28;20524;-39
2022/04/27 05:49:08;;;;;;;13.85;7.38;;;7.70;99.90;;;;;;4999815;28;20136;-38
2022/04/27 05:51:37;;;;;;;11.18;6.47;;;7.70;99.90;;;;;;5011453;28;20059;-38
2022/04/27 05:54:03;;;;;;;10.82;6.15;;;7.70;99.90;;;;;;5026609;28;20053;-39
2022/04/27 05:56:30;;;;;;;11.13;6.38;;;7.80;99.90;;;;;;5027284;28;20054;-40
2022/04/27 05:58:57;;;;;;;13.40;6.85;;;7.80;99.90;;;;;;5029232;28;20055;-39
2022/04/27 06:01:24;;;;;;;12.55;6.18;;;7.90;99.90;;;;;;5011020;28;20049;-37
2022/04/27 06:03:51;;;;;;;9.75;6.28;;;7.90;99.90;;;;;;5028226;28;20421;-40
2022/04/27 06:06:17;;;;;;;15.25;7.35;;;7.90;99.90;;;;;;5013156;28;20049;-40
2022/04/27 06:08:45;;;;;;;11.95;6.20;;;8.00;99.90;;;;;;5016740;28;20049;-40
2022/04/27 06:11:12;;;;;;;9.70;6.60;;;8.00;99.90;;;;;;5034022;28;20054;-40
2022/04/27 06:13:39;;;;;;;9.50;6.47;;;8.10;99.90;;;;;;5026732;28;20136;-42
2022/04/27 06:16:06;;;;;;;8.38;6.07;;;8.10;99.90;;;;;;5031035;28;20045;-40
2022/04/27 06:18:32;;;;;;;12.63;7.13;;;8.10;99.90;;;;;;5034112;28;20088;-42
2022/04/27 06:20:59;;;;;;;9.35;6.25;;;8.20;99.90;;;;;;5026801;28;20053;-41
2022/04/27 06:23:26;;;;;;;14.02;6.97;;;8.30;99.90;;;;;;5027775;28;20506;-40
2022/04/27 06:25:57;;;;;;;11.13;6.60;;;8.30;99.90;;;;;;5030187;28;20050;-41
2022/04/27 06:28:23;;;;;;;18.52;6.32;;;8.40;99.90;;;;;;5030623;28;20053;-38
2022/04/27 06:30:50;;;;;;;12.07;6.53;;;8.40;99.90;;;;;;5024015;28;20042;-41
2022/04/27 06:33:17;;;;;;;14.38;6.60;;;8.40;99.90;;;;;;5010674;28;20045;-40
2022/04/27 06:35:43;;;;;;;10.77;6.00;;;8.50;99.90;;;;;;5028806;28;20041;-37
2022/04/27 06:38:10;;;;;;;13.52;5.93;;;8.50;99.90;;;;;;5030173;28;20053;-40
2022/04/27 06:40:37;;;;;;;11.38;6.38;;;8.60;99.90;;;;;;5031176;28;20837;-42
2022/04/27 06:43:05;;;;;;;14.90;5.95;;;8.70;99.90;;;;;;5014491;28;20129;-42
2022/04/27 06:45:32;;;;;;;12.93;5.82;;;8.70;99.90;;;;;;5029216;28;20464;-40
2022/04/27 06:47:59;;;;;;;13.85;6.20;;;8.80;99.70;;;;;;5010033;28;20148;-42
2022/04/27 06:50:26;;;;;;;12.43;5.50;;;8.80;99.70;;;;;;5028269;28;20068;-42
2022/04/27 06:52:54;;;;;;;8.43;5.10;;;8.90;99.60;;;;;;5026866;28;20157;-40
2022/04/27 06:55:21;;;;;;;13.30;5.70;;;9.00;99.40;;;;;;5013026;28;20053;-41
2022/04/27 06:57:47;;;;;;;7.30;5.28;;;9.00;99.20;;;;;;5029974;28;20063;-40
2022/04/27 07:00:16;;;;;;;8.55;5.25;;;9.10;99.10;;;;;;5009503;28;20046;-40
2022/04/27 07:02:43;;;;;;;10.10;5.18;;;9.20;99.00;;;;;;5026874;28;20052;-42
2022/04/27 07:05:16;;;;;;;7.78;4.60;;;9.20;98.80;;;;;;5012493;28;20140;-40
2022/04/27 07:07:43;;;;;;;12.82;5.03;;;9.30;98.60;;;;;;5029970;28;20490;-40
2022/04/27 07:10:10;;;;;;;11.00;5.05;;;9.30;98.40;;;;;;5010793;28;20060;-41
2022/04/27 07:12:36;;;;;;;11.18;4.90;;;9.40;98.30;;;;;;5026718;28;20049;-40
2022/04/27 07:15:03;;;;;;;7.10;4.88;;;9.50;98.10;;;;;;5033166;28;20048;-42
2022/04/27 07:17:31;;;;;;;10.80;5.05;;;9.50;98.00;;;;;;5010046;28;20052;-38
2022/04/27 07:19:58;;;;;;;8.98;5.30;;;9.60;98.00;;;;;;5000334;28;20045;-42
2022/04/27 07:22:25;;;;;;;7.78;4.72;;;9.60;98.00;;;;;;5010832;28;20049;-40
2022/04/27 07:24:51;;;;;;;8.38;4.40;;;9.80;97.80;;;;;;5029779;28;20049;-36
2022/04/27 07:27:18;;;;;;;11.00;3.63;;;9.80;97.60;;;;;;5029992;28;20481;-42
2022/04/27 07:29:45;;;;;;;8.35;3.38;;;9.80;97.10;;;;;;5027991;28;20042;-42
2022/04/27 07:32:12;;;;;;;9.18;3.33;;;10.00;96.80;;;;;;5026781;28;20053;-42
2022/04/27 07:34:40;;;;;;;4.75;2.92;;;10.00;96.30;;;;;;5026857;28;20052;-41
2022/04/27 07:37:07;;;;;;;7.75;3.08;;;10.10;96.00;;;;;;5012632;28;20046;-42
2022/04/27 07:39:33;;;;;;;3.13;2.05;;;10.20;96.00;;;;;;5029324;28;20046;-38
2022/04/27 07:42:00;;;;;;;7.07;2.33;;;10.30;95.40;;;;;;5006406;28;20510;-41
2022/04/27 07:44:27;;;;;;;6.85;2.20;;;10.40;94.90;;;;;;5027036;28;20053;-43
2022/04/27 07:46:54;;;;;;;7.40;2.42;;;10.40;94.50;;;;;;5007786;28;20049;-40
2022/04/27 07:49:21;;;;;;;5.75;1.73;;;10.50;94.00;;;;;;5026583;28;20055;-41
2022/04/27 07:51:50;;;;;;;4.63;1.85;;;10.60;93.30;;;;;;5029761;28;20046;-42
2022/04/27 07:54:16;;;;;;;2.63;1.40;;;10.70;92.80;;;;;;5032346;28;20449;-40
2022/04/27 07:56:44;;;;;;;2.75;1.58;;;10.80;92.50;;;;;;5031760;28;20049;-40
2022/04/27 07:59:10;;;;;;;5.07;1.65;;;10.80;91.70;;;;;;5028885;28;20508;-40
2022/04/27 08:01:37;;;;;;;6.05;1.45;;;10.90;90.90;;;;;;5006683;28;20060;-40
2022/04/27 08:04:04;;;;;;;5.18;1.50;;;10.90;90.80;;;;;;5026737;28;20048;-40
2022/04/27 08:06:31;;;;;;;6.53;1.92;;;10.90;90.30;;;;;;5011527;28;20179;-42
2022/04/27 08:08:59;;;;;;;7.78;1.80;;;11.00;90.00;;;;;;5022588;28;20050;-42
2022/04/27 08:11:25;;;;;;;7.38;1.77;;;11.00;90.10;;;;;;5034478;28;20080;-41
2022/04/27 08:13:52;;;;;;;4.82;1.40;;;11.10;90.00;;;;;;5014851;28;20066;-40
2022/04/27 08:16:19;;;;;;;5.55;1.80;;;11.10;89.70;;;;;;5023066;28;20041;-42
2022/04/27 08:18:46;;;;;;;5.18;1.40;;;11.20;89.40;;;;;;5023322;28;20400;-41
2022/04/27 08:21:15;;;;;;;5.15;1.70;;;11.30;88.40;;;;;;5009952;28;20053;-41
2022/04/27 08:23:42;;;;;;;7.05;1.60;;;11.30;88.10;;;;;;5012770;28;20081;-41
2022/04/27 08:26:11;;;;;;;7.07;1.60;;;11.30;86.40;;;;;;5027449;28;20068;-40
2022/04/27 08:28:38;;;;;;;5.43;1.55;;;11.30;85.50;;;;;;5023446;28;20053;-39
2022/04/27 08:31:04;;;;;;;4.28;1.70;;;11.20;85.90;;;;;;5010671;28;20053;-41
2022/04/27 08:33:31;;;;;;;9.65;1.88;;;11.30;85.60;;;;;;5014170;28;20088;-40
2022/04/27 08:35:59;;;;;;;8.85;1.77;;;11.30;85.30;;;;;;5030302;28;20361;-42
2022/04/27 08:38:25;;;;;;;6.93;1.88;;;11.40;85.20;;;;;;5012446;28;20058;-40
2022/04/27 08:40:52;;;;;;;8.75;1.67;;;11.50;84.90;;;;;;5031918;28;20056;-42
2022/04/27 08:43:21;;;;;;;6.78;1.50;;;11.60;83.80;;;;;;5035867;28;20041;-41
2022/04/27 08:45:48;;;;;;;6.05;1.70;;;11.70;83.90;;;;;;5027967;28;20045;-41
2022/04/27 08:48:17;;;;;;;5.93;1.60;;;11.80;83.20;;;;;;5038900;28;20056;-40
2022/04/27 08:50:44;;;;;;;5.10;1.80;;;11.90;82.00;;;;;;5009437;28;20050;-42
2022/04/27 08:53:11;;;;;;;5.05;1.60;;;12.00;81.80;;;;;;5024690;28;20064;-41
2022/04/27 08:55:38;;;;;;;5.35;1.40;;;12.10;81.90;;;;;;5018996;28;20049;-42
2022/04/27 08:58:09;;;;;;;5.47;1.73;;;12.20;81.50;;;;;;5007996;28;20050;-40
2022/04/27 09:00:37;;;;;;;8.17;2.00;;;12.30;80.60;;;;;;5022365;28;20053;-41
2022/04/27 09:03:30;;;;;;;5.88;1.48;;;12.30;80.10;;;;;;5028914;28;20411;-41
2022/04/27 09:05:58;;;;;;;6.38;1.80;;;12.50;79.90;;;;;;5002638;28;20065;-42
2022/04/27 09:08:25;;;;;;;8.75;1.95;;;12.50;78.60;;;;;;5022365;28;20516;-43
2022/04/27 09:11:08;;;;;;;5.47;1.90;;;12.50;78.60;;;;;;5023568;28;20395;-42
2022/04/27 09:13:36;;;;;;;4.93;1.88;;;12.60;78.60;;;;;;5016318;28;20050;-43
2022/04/27 09:16:04;;;;;;;8.85;1.90;;;12.70;78.80;;;;;;5029940;28;20175;-42
2022/04/27 09:21:31;;;;;;;4.72;1.60;;;12.60;79.00;;;;;;5019657;28;20050;-41
2022/04/27 09:24:02;;;;;;;10.27;1.95;;;12.70;78.70;;;;;;5027006;28;20053;-42
2022/04/27 09:26:31;;;;;;;6.72;1.98;;;12.80;77.30;;;;;;5028578;28;20050;-42
2022/04/27 09:28:59;;;;;;;9.02;2.17;;;12.70;76.90;;;;;;5027724;28;20103;-42
2022/04/27 09:31:28;;;;;;;6.40;2.05;;;12.70;76.80;;;;;;5025297;28;20048;-41
2022/04/27 09:33:59;;;;;;;5.88;1.80;;;12.70;77.10;;;;;;5007522;28;20470;-41
2022/04/27 09:36:25;;;;;;;7.03;2.10;;;12.60;75.80;;;;;;5028464;28;20136;-42
2022/04/27 09:38:52;;;;;;;9.77;1.75;;;12.60;76.60;;;;;;5034085;28;20128;-42
2022/04/27 09:41:38;;;;;;;5.55;1.70;;;12.60;76.70;;;;;;5015865;28;20477;-41
2022/04/27 09:44:05;;;;;;;7.20;1.83;;;12.60;76.60;;;;;;5020703;28;20132;-41
2022/04/27 09:46:38;;;;;;;6.85;1.90;;;12.60;76.50;;;;;;5026438;28;20402;-42
2022/04/27 09:49:13;;;;;;;6.15;1.80;;;12.60;77.10;;;;;;5026438;28;20126;-42
2022/04/27 09:51:47;;;;;;;8.18;2.20;;;12.60;77.10;;;;;;5025675;28;20495;-41
2022/04/27 09:54:17;;;;;;;6.57;1.80;;;12.80;77.60;;;;;;5023040;28;20049;-41
2022/04/27 09:56:44;;;;;;;13.70;2.20;;;12.90;77.20;;;;;;5032357;28;20049;-42
2022/04/27 09:59:11;;;;;;;7.20;1.67;;;12.90;76.20;;;;;;5023101;28;20115;-40
2022/04/27 10:01:39;;;;;;;8.90;1.80;;;13.00;75.00;;;;;;5011106;28;20096;-42
2022/04/27 10:04:06;;;;;;;5.22;1.83;;;13.00;75.30;;;;;;5030105;28;20141;-43
2022/04/27 10:06:33;;;;;;;6.53;1.83;;;13.10;75.30;;;;;;5029812;28;20084;-40
2022/04/27 10:09:00;;;;;;;5.95;1.67;;;13.10;75.30;;;;;;5025336;28;20490;-43
2022/04/27 10:11:28;;;;;;;8.38;2.35;;;13.20;74.20;;;;;;5037527;28;20458;-42
2022/04/27 10:13:54;;;;;;;9.60;2.15;;;13.30;73.70;;;;;;5032203;28;20132;-42
2022/04/27 10:16:22;;;;;;;7.47;1.90;;;13.20;72.50;;;;;;5027583;28;20128;-41
2022/04/27 10:18:50;;;;;;;5.85;1.73;;;13.30;72.10;;;;;;5013412;28;20483;-43
2022/04/27 10:21:38;;;;;;;9.38;2.00;;;13.30;71.90;;;;;;5012860;28;20054;-42
2022/04/27 10:24:06;;;;;;;10.48;2.10;;;13.50;71.80;;;;;;5028329;28;20049;-42
2022/04/27 10:26:32;;;;;;;9.15;2.42;;;13.50;72.20;;;;;;5034523;28;20072;-41
2022/04/27 10:29:00;;;;;;;12.25;2.08;;;13.60;71.90;;;;;;5030894;28;20049;-42
2022/04/27 10:31:59;;;;;;;6.35;1.88;;;13.70;71.70;;;;;;5032070;28;20056;-42
2022/04/27 10:34:27;;;;;;;8.35;2.40;;;13.70;71.40;;;;;;5029126;28;20076;-42
2022/04/27 10:36:54;;;;;;;8.15;2.00;;;13.70;71.60;;;;;;5031234;28;20056;-42
2022/04/27 10:39:22;;;;;;;7.95;1.88;;;13.70;71.30;;;;;;5026517;28;20057;-40
2022/04/27 10:41:56;;;;;;;7.93;2.03;;;13.80;71.30;;;;;;5012826;28;20478;-41
2022/04/27 10:44:34;;;;;;;8.00;1.85;;;13.90;71.70;;;;;;5030465;28;20061;-40
2022/04/27 10:47:18;;;;;;;5.35;2.10;;;13.90;70.40;;;;;;5023065;28;20418;-41
2022/04/27 10:49:47;;;;;;;6.22;1.90;;;13.80;70.50;;;;;;5004700;28;20091;-42
2022/04/27 10:52:13;;;;;;;6.03;1.73;;;13.80;70.70;;;;;;5015930;28;20052;-40
2022/04/27 10:54:41;;;;;;;5.45;1.85;;;13.80;68.90;;;;;;5033666;28;20060;-42
2022/04/27 10:57:41;;;;;;;7.18;2.08;;;13.90;69.50;;;;;;5032227;28;20500;-42
2022/04/27 11:00:09;;;;;;;7.10;2.00;;;13.90;70.50;;;;;;5027715;28;20179;-41
2022/04/27 11:02:37;;;;;;;6.13;1.98;;;14.00;69.80;;;;;;5015344;28;20064;-42
2022/04/27 11:05:06;;;;;;;6.85;1.98;;;14.10;69.80;;;;;;5033252;28;20072;-43
2022/04/27 11:07:35;;;;;;;7.53;2.15;;;14.20;69.70;;;;;;5012557;28;20057;-42
2022/04/27 11:10:15;;;;;;;15.05;2.00;;;14.20;67.80;;;;;;5029532;28;20077;-42
2022/04/27 11:12:44;;;;;;;9.40;1.98;;;14.20;67.60;;;;;;5011952;28;20049;-42
2022/04/27 11:15:14;;;;;;;8.88;2.10;;;14.20;67.90;;;;;;5025982;28;20092;-39
2022/04/27 11:17:41;;;;;;;7.57;2.00;;;14.30;68.40;;;;;;5031250;28;20052;-41
2022/04/27 11:20:25;;;;;;;8.40;2.20;;;14.40;68.20;;;;;;5013143;28;20045;-43
2022/04/27 11:22:51;;;;;;;7.18;1.88;;;14.50;67.80;;;;;;5014729;28;20047;-42
2022/04/27 11:25:26;;;;;;;10.25;2.42;;;14.50;67.50;;;;;;5023805;28;20057;-40
2022/04/27 11:27:52;;;;;;;7.85;2.03;;;14.60;67.30;;;;;;5031424;28;20053;-42
2022/04/27 11:30:19;;;;;;;5.60;2.03;;;14.50;67.10;;;;;;5030708;28;20497;-41
2022/04/27 11:32:47;;;;;;;5.25;2.35;;;14.60;66.70;;;;;;5025260;28;20052;-41
2022/04/27 11:35:14;;;;;;;10.05;2.08;;;14.60;66.80;;;;;;5013966;28;20345;-42
2022/04/27 11:37:42;;;;;;;6.95;2.13;;;14.70;66.60;;;;;;4998818;28;20050;-42
2022/04/27 11:40:13;;;;;;;9.77;2.42;;;14.60;65.90;;;;;;5028588;28;20049;-42
2022/04/27 11:42:42;;;;;;;11.50;2.78;;;14.60;66.20;;;;;;5008863;28;20092;-42
2022/04/27 11:45:09;;;;;;;4.85;2.08;;;14.60;65.90;;;;;;5005478;28;20675;-42
2022/04/27 11:47:36;;;;;;;8.25;2.50;;;14.60;65.80;;;;;;5017930;28;20064;-41
2022/04/27 11:50:04;;;;;;;5.50;2.15;;;14.70;66.50;;;;;;5010799;28;20049;-42
2022/04/27 11:52:31;;;;;;;7.43;2.38;;;14.80;66.30;;;;;;5025011;28;20169;-42
2022/04/27 11:55:02;;;;;;;4.97;1.80;;;14.80;65.00;;;;;;5026451;28;20053;-42
2022/04/27 11:57:29;;;;;;;8.70;2.95;;;14.90;66.40;;;;;;5019696;28;20063;-42
2022/04/27 11:59:57;;;;;;;10.32;2.70;;;15.00;67.10;;;;;;5028143;28;20041;-42
2022/04/27 12:02:25;;;;;;;11.18;2.78;;;15.10;67.00;;;;;;5003518;28;20056;-42
2022/04/27 12:04:52;;;;;;;11.25;2.63;;;15.10;67.00;;;;;;5016645;28;20410;-41
2022/04/27 12:07:20;;;;;;;8.38;2.42;;;15.10;67.40;;;;;;5013327;28;20042;-42
2022/04/27 12:09:56;;;;;;;6.75;2.60;;;15.20;68.10;;;;;;5035490;28;20412;-41
2022/04/27 12:12:24;;;;;;;7.85;2.67;;;15.30;68.30;;;;;;5028466;28;20049;-42
2022/04/27 12:14:51;;;;;;;7.57;2.88;;;15.40;68.10;;;;;;5014887;28;20056;-42
2022/04/27 12:17:47;;;;;;;7.85;2.60;;;15.50;67.50;;;;;;5031822;28;20056;-41
2022/04/27 12:20:30;;;;;;;7.70;2.58;;;15.60;66.10;;;;;;5007981;28;20057;-40
2022/04/27 12:22:57;;;;;;;7.80;2.53;;;15.60;66.30;;;;;;5023029;28;20045;-40
2022/04/27 12:25:33;;;;;;;7.75;2.10;;;15.70;65.20;;;;;;5029634;28;20085;-42
2022/04/27 12:28:01;;;;;;;9.27;2.53;;;15.80;66.00;;;;;;5005781;28;20096;-42
2022/04/27 12:30:27;;;;;;;7.55;2.58;;;15.90;64.80;;;;;;5013847;28;20064;-40
2022/04/27 12:32:54;;;;;;;9.45;2.50;;;15.80;64.30;;;;;;5032069;28;20041;-42
2022/04/27 12:38:11;;;;;;;11.23;3.22;;;15.80;64.10;;;;;;5014502;28;20057;-43
2022/04/27 12:40:42;;;;;;;13.23;3.88;;;15.90;63.40;;;;;;5031529;28;20494;-43
2022/04/27 12:43:12;;;;;;;7.95;2.80;;;15.90;63.60;;;;;;5031900;28;20041;-42
2022/04/27 12:45:39;;;;;;;8.65;3.30;;;16.00;62.70;;;;;;5021736;28;20054;-42
2022/04/27 12:48:06;;;;;;;9.23;3.67;;;15.80;62.90;;;;;;5026457;28;20048;-41
2022/04/27 12:50:33;;;;;;;10.27;3.13;;;15.70;63.30;;;;;;5020496;28;20147;-43
2022/04/27 12:53:07;;;;;;;5.32;2.53;;;15.60;63.70;;;;;;5014147;28;20055;-43
2022/04/27 12:55:34;;;;;;;8.93;2.75;;;15.70;65.20;;;;;;5028451;28;20042;-43
2022/04/27 12:58:01;;;;;;;10.98;2.60;;;15.70;64.40;;;;;;5009918;28;20148;-43
2022/04/27 13:00:39;;;;;;;6.40;2.60;;;15.70;64.30;;;;;;5022717;28;20052;-43
2022/04/27 13:03:08;;;;;;;9.05;2.40;;;15.70;64.10;;;;;;5025263;28;20050;-42
2022/04/27 13:05:35;;;;;;;7.88;2.20;;;15.70;63.40;;;;;;5011406;28;20128;-42
2022/04/27 13:08:01;;;;;;;8.25;2.47;;;15.70;64.50;;;;;;5021475;28;20494;-42
2022/04/27 13:13:15;;;;;;;9.98;2.40;;;15.80;63.20;;;;;;5029592;28;20045;-42
2022/04/27 13:15:43;;;;;;;6.75;2.08;;;15.70;63.30;;;;;;5025183;28;20049;-42
2022/04/27 13:18:10;;;;;;;8.02;2.40;;;15.80;63.70;;;;;;5041394;28;20462;-42
2022/04/27 13:20:37;;;;;;;8.90;2.70;;;15.80;63.50;;;;;;5035510;28;20128;-42